Time;durP1;ratioP1;P1;durP2;ratioP2;P2;SDS_P1;SDS_P2;PMS_P1;PMS_P2;Temp;Humidity;BMP_temperature;BMP_pressure;BME280_temperature;BME280_humidity;BME280_pressure;Samples;Min_cycle;Max_cycle;Signal;HPM_P1;HPM_P2
2022/06/21 00:02:20;;;;;;;5.97;3.17;;;;;;;10.47;94.65;100943.50;5024493;28;20056;-85
2022/06/21 00:04:49;;;;;;;2.58;2.38;;;;;;;10.46;95.53;100940.88;5010067;28;20049;-82
2022/06/21 00:07:23;;;;;;;4.53;2.60;;;;;;;10.45;95.54;100947.00;5012035;28;20046;-85
2022/06/21 00:09:51;;;;;;;7.45;3.08;;;;;;;10.42;95.64;100943.50;4995391;28;20048;-86
2022/06/21 00:12:18;;;;;;;4.95;2.97;;;;;;;10.41;96.37;100949.59;5012423;28;20037;-84
2022/06/21 00:14:45;;;;;;;6.85;2.58;;;;;;;10.41;96.33;100951.34;4997990;28;20057;-83
2022/06/21 00:17:15;;;;;;;9.00;4.20;;;;;;;10.40;96.78;100944.38;5014068;28;20037;-84
2022/06/21 00:19:43;;;;;;;3.55;2.67;;;;;;;10.36;97.05;100942.66;5009133;28;20045;-85
2022/06/21 00:22:16;;;;;;;5.57;3.28;;;;;;;10.32;97.47;100944.38;5029657;28;20045;-82
2022/06/21 00:24:43;;;;;;;5.28;3.10;;;;;;;10.30;97.97;100950.47;5010668;28;20056;-82
2022/06/21 00:27:20;;;;;;;6.55;3.80;;;;;;;10.27;98.46;100959.22;5012157;28;20523;-82
2022/06/21 00:29:48;;;;;;;8.25;3.65;;;;;;;10.23;98.61;100953.13;5016486;28;20141;-83
2022/06/21 00:32:18;;;;;;;10.10;3.25;;;;;;;10.24;98.76;100948.75;5014617;28;20470;-84
2022/06/21 00:34:46;;;;;;;5.43;3.38;;;;;;;10.20;99.14;100950.50;5009879;28;20048;-84
2022/06/21 00:37:17;;;;;;;9.80;3.70;;;;;;;10.20;99.12;100945.28;5013474;28;20060;-84
2022/06/21 00:39:43;;;;;;;6.25;2.75;;;;;;;10.20;98.94;100947.03;4994562;28;20156;-82
2022/06/21 00:42:24;;;;;;;8.05;4.05;;;;;;;10.17;98.98;100939.19;4993899;28;20793;-84
2022/06/21 00:45:10;;;;;;;9.35;3.17;;;;;;;10.16;99.59;100942.69;4994270;28;20916;-82
2022/06/21 00:47:45;;;;;;;3.90;2.90;;;;;;;10.14;99.19;100942.66;5005140;28;20374;-84
2022/06/21 00:50:27;;;;;;;6.30;3.65;;;;;;;10.07;99.96;100940.97;5008100;28;20041;-83
2022/06/21 00:53:19;;;;;;;6.53;3.13;;;;;;;10.04;100.00;100940.97;5008848;28;20053;-83
2022/06/21 00:55:54;;;;;;;4.03;3.33;;;;;;;10.04;100.00;100943.59;5026165;28;20057;-82
2022/06/21 00:58:26;;;;;;;5.07;2.67;;;;;;;10.03;100.00;100942.69;5009373;28;20049;-82
2022/06/21 01:01:16;;;;;;;5.32;3.65;;;;;;;9.99;100.00;100940.97;5012459;28;20033;-84
2022/06/21 01:03:53;;;;;;;9.90;3.47;;;;;;;9.92;100.00;100937.50;4993753;28;20053;-84
2022/06/21 01:06:28;;;;;;;4.35;3.25;;;;;;;9.88;100.00;100935.78;5012642;28;20039;-82
2022/06/21 01:09:05;;;;;;;2.95;2.65;;;;;;;9.87;100.00;100935.78;5009537;28;20053;-85
2022/06/21 01:11:43;;;;;;;7.22;3.22;;;;;;;9.84;100.00;100925.31;5012997;28;20052;-85
2022/06/21 01:14:15;;;;;;;9.43;3.95;;;;;;;9.79;100.00;100932.28;4991813;28;20068;-83
2022/06/21 01:16:42;;;;;;;4.72;3.10;;;;;;;9.77;100.00;100921.84;5010724;28;20515;-82
2022/06/21 01:19:25;;;;;;;3.67;3.15;;;;;;;9.72;100.00;100924.44;5003331;28;20732;-82
2022/06/21 01:22:03;;;;;;;3.93;3.27;;;;;;;9.70;100.00;100920.97;5008495;28;20828;-85
2022/06/21 01:24:44;;;;;;;6.97;3.83;;;;;;;9.69;100.00;100921.84;5008604;28;20045;-83
2022/06/21 01:27:11;;;;;;;5.43;3.50;;;;;;;9.68;100.00;100925.31;5027820;28;20852;-84
2022/06/21 01:29:38;;;;;;;5.68;3.35;;;;;;;9.66;100.00;100934.94;4997294;28;20046;-83
2022/06/21 01:32:07;;;;;;;7.65;4.20;;;;;;;9.62;100.00;100934.91;5010609;28;20516;-84
2022/06/21 01:34:35;;;;;;;8.68;3.22;;;;;;;9.58;100.00;100942.78;4983561;28;20426;-83
2022/06/21 01:37:12;;;;;;;7.13;3.65;;;;;;;9.57;100.00;100941.03;4994256;28;20057;-83
2022/06/21 01:39:48;;;;;;;8.88;3.63;;;;;;;9.54;100.00;100941.03;5024786;28;20045;-83
2022/06/21 01:42:36;;;;;;;8.80;3.55;;;;;;;9.47;100.00;100939.28;4994605;28;20037;-86
2022/06/21 01:45:12;;;;;;;6.70;4.05;;;;;;;9.44;100.00;100931.44;5012069;28;20152;-84
2022/06/21 01:47:50;;;;;;;12.68;4.20;;;;;;;9.37;100.00;100911.41;5012749;28;20152;-82
2022/06/21 01:50:18;;;;;;;6.72;3.25;;;;;;;9.36;100.00;100905.31;5008840;28;20044;-82
2022/06/21 01:52:48;;;;;;;4.30;2.90;;;;;;;9.35;100.00;100907.94;5007397;28;20072;-86
2022/06/21 01:55:34;;;;;;;9.43;3.65;;;;;;;9.35;100.00;100915.78;4993167;28;20067;-83
2022/06/21 01:58:03;;;;;;;8.18;3.60;;;;;;;9.38;100.00;100936.66;5029859;28;20984;-83
2022/06/21 02:00:33;;;;;;;6.35;3.28;;;;;;;9.42;100.00;100926.19;5009777;28;20045;-84
2022/06/21 02:03:08;;;;;;;8.52;4.53;;;;;;;9.44;100.00;100928.84;5016120;28;20037;-83
2022/06/21 02:05:41;;;;;;;5.18;3.65;;;;;;;9.40;100.00;100930.56;4992058;28;20049;-84
2022/06/21 02:08:17;;;;;;;6.00;3.13;;;;;;;9.35;100.00;100937.53;5007115;28;20045;-86
2022/06/21 02:10:54;;;;;;;8.50;3.55;;;;;;;9.31;100.00;100935.78;4990364;28;20526;-83
2022/06/21 02:13:46;;;;;;;5.07;3.33;;;;;;;9.29;100.00;100939.28;4997280;28;20264;-84
2022/06/21 02:16:22;;;;;;;17.60;4.50;;;;;;;9.29;100.00;100944.50;4993219;28;20053;-83
2022/06/21 02:18:57;;;;;;;5.65;3.55;;;;;;;9.26;100.00;100941.00;5010200;28;20048;-84
2022/06/21 02:21:31;;;;;;;6.10;3.17;;;;;;;9.26;100.00;100941.00;5014018;28;20037;-83
2022/06/21 02:23:58;;;;;;;10.57;3.40;;;;;;;9.24;100.00;100939.25;5004738;28;20042;-84
2022/06/21 02:26:30;;;;;;;9.07;3.65;;;;;;;9.21;100.00;100942.72;5008175;28;20045;-85
2022/06/21 02:28:58;;;;;;;11.73;3.10;;;;;;;9.16;100.00;100933.16;4991210;28;20040;-84
2022/06/21 02:31:27;;;;;;;7.60;3.08;;;;;;;9.14;100.00;100927.94;5011035;28;20050;-83
2022/06/21 02:34:02;;;;;;;3.28;2.88;;;;;;;9.10;100.00;100923.59;5007382;28;20033;-82
2022/06/21 02:36:38;;;;;;;6.80;2.72;;;;;;;9.03;100.00;100921.81;4992880;28;20103;-82
2022/06/21 02:39:07;;;;;;;6.70;2.95;;;;;;;8.99;100.00;100926.16;5006679;28;20507;-83
2022/06/21 02:41:42;;;;;;;5.85;3.40;;;;;;;9.00;100.00;100924.44;5023624;28;20644;-84
2022/06/21 02:44:37;;;;;;;9.82;3.22;;;;;;;9.02;100.00;100920.97;5004702;28;20038;-82
2022/06/21 02:47:14;;;;;;;6.97;3.50;;;;;;;9.00;100.00;100925.28;4995776;28;20049;-80
2022/06/21 02:49:53;;;;;;;5.00;2.80;;;;;;;8.97;100.00;100925.31;5011720;28;20053;-86
2022/06/21 02:52:28;;;;;;;14.18;4.18;;;;;;;8.94;100.00;100923.56;5001137;28;20049;-82
2022/06/21 02:55:40;;;;;;;6.95;3.22;;;;;;;8.91;100.00;100923.53;4993623;28;20480;-84
2022/06/21 02:58:30;;;;;;;12.05;3.70;;;;;;;8.89;100.00;100933.13;5010426;28;20140;-82
2022/06/21 03:00:59;;;;;;;4.90;3.33;;;;;;;8.91;100.00;100939.19;5010576;28;20045;-84
2022/06/21 03:03:28;;;;;;;12.30;4.18;;;;;;;8.97;100.00;100938.34;5017019;28;20679;-84
2022/06/21 03:06:01;;;;;;;5.65;3.83;;;;;;;9.02;100.00;100935.72;5009378;28;20045;-82
2022/06/21 03:08:32;;;;;;;16.23;4.28;;;;;;;9.00;100.00;100925.28;4992332;28;20053;-83
2022/06/21 03:10:59;;;;;;;9.73;3.90;;;;;;;8.98;100.00;100926.16;4991699;28;22088;-83
2022/06/21 03:13:33;;;;;;;8.55;3.40;;;;;;;9.00;100.00;100927.03;5005668;28;20124;-85
2022/06/21 03:16:12;;;;;;;6.85;3.33;;;;;;;9.04;100.00;100934.00;5029267;28;20037;-83
2022/06/21 03:18:52;;;;;;;7.80;3.38;;;;;;;9.04;100.00;100936.63;5001358;28;20060;-86
2022/06/21 03:21:28;;;;;;;8.68;3.97;;;;;;;9.03;100.00;100933.13;5021093;28;20073;-85
2022/06/21 03:23:58;;;;;;;14.40;3.55;;;;;;;9.01;100.00;100923.53;5025957;28;20040;-84
2022/06/21 03:26:29;;;;;;;4.70;2.80;;;;;;;8.99;100.00;100920.94;5041148;28;20056;-84
2022/06/21 03:28:57;;;;;;;7.90;3.65;;;;;;;8.96;100.00;100920.94;5033985;28;20046;-81
2022/06/21 03:31:29;;;;;;;9.10;3.50;;;;;;;8.96;100.00;100920.06;5043942;28;20079;-84
2022/06/21 03:34:06;;;;;;;7.95;3.92;;;;;;;8.94;100.00;100926.16;5029657;28;20048;-86
2022/06/21 03:36:34;;;;;;;9.88;3.65;;;;;;;8.97;100.00;100917.47;5026819;28;20041;-86
2022/06/21 03:39:08;;;;;;;7.15;3.92;;;;;;;8.97;100.00;100925.31;5014278;28;20044;-86
2022/06/21 03:41:43;;;;;;;6.88;3.58;;;;;;;9.00;100.00;100919.22;5007119;28;20095;-84
2022/06/21 03:44:30;;;;;;;11.55;4.25;;;;;;;9.03;100.00;100920.06;4994089;28;20042;-83
2022/06/21 03:47:13;;;;;;;8.73;3.92;;;;;;;9.03;100.00;100913.97;4995135;28;20044;-84
2022/06/21 03:50:01;;;;;;;9.00;4.15;;;;;;;9.05;100.00;100925.31;5008343;28;20053;-83
2022/06/21 03:52:58;;;;;;;9.70;4.22;;;;;;;9.15;100.00;100936.63;5020846;28;20131;-84
2022/06/21 03:55:56;;;;;;;12.77;3.67;;;;;;;9.23;100.00;100935.78;4978426;28;20483;-85
2022/06/21 03:58:39;;;;;;;10.18;3.33;;;;;;;9.32;100.00;100934.03;5026008;28;20129;-83
2022/06/21 04:01:14;;;;;;;6.10;3.33;;;;;;;9.38;100.00;100929.69;5006200;28;20075;-83
2022/06/21 04:04:15;;;;;;;6.30;4.80;;;;;;;9.47;100.00;100933.19;5001469;28;20037;-85
2022/06/21 04:06:54;;;;;;;11.60;4.53;;;;;;;9.54;100.00;100941.03;5023617;28;20044;-83
2022/06/21 04:09:32;;;;;;;11.05;3.80;;;;;;;9.62;100.00;100941.03;5022124;28;20049;-81
2022/06/21 04:12:07;;;;;;;7.57;3.97;;;;;;;9.70;100.00;100943.63;5009298;28;20045;-84
2022/06/21 04:14:44;;;;;;;8.38;3.90;;;;;;;9.77;100.00;100933.16;5020845;28;20046;-82
2022/06/21 04:17:37;;;;;;;10.35;3.05;;;;;;;9.84;100.00;100941.88;5009735;28;20131;-82
2022/06/21 04:20:31;;;;;;;10.32;3.28;;;;;;;9.92;100.00;100940.13;5006756;28;20475;-82
2022/06/21 04:23:09;;;;;;;13.07;3.47;;;;;;;10.01;100.00;100943.59;5022086;28;20488;-82
2022/06/21 04:25:58;;;;;;;7.75;3.95;;;;;;;10.07;100.00;100939.19;5023485;28;20041;-85
2022/06/21 04:28:32;;;;;;;5.28;2.97;;;;;;;10.13;100.00;100940.94;4992007;28;20839;-85
2022/06/21 04:31:18;;;;;;;12.25;3.33;;;;;;;10.18;100.00;100933.97;5007925;28;20434;-83
2022/06/21 04:33:56;;;;;;;8.50;3.88;;;;;;;10.24;100.00;100925.22;5017310;28;20492;-83
2022/06/21 04:36:45;;;;;;;9.13;3.38;;;;;;;10.30;100.00;100924.31;5007383;28;20040;-83
2022/06/21 04:39:24;;;;;;;14.90;3.50;;;;;;;10.35;100.00;100922.56;5010902;28;21023;-83
2022/06/21 04:42:03;;;;;;;8.13;4.03;;;;;;;10.41;100.00;100920.81;5003357;28;20593;-83
2022/06/21 04:45:07;;;;;;;11.93;4.47;;;;;;;10.51;100.00;100924.28;5004969;28;20053;-83
2022/06/21 04:48:13;;;;;;;11.10;4.23;;;;;;;10.61;100.00;100924.22;5010166;28;20056;-86
2022/06/21 04:50:57;;;;;;;8.15;3.95;;;;;;;10.68;100.00;100932.06;5022234;28;20295;-85
2022/06/21 04:53:42;;;;;;;8.63;4.28;;;;;;;10.72;100.00;100931.16;5003329;28;20061;-84
2022/06/21 04:56:59;;;;;;;13.98;4.65;;;;;;;10.75;100.00;100935.50;5005280;28;20044;-84
2022/06/21 04:59:38;;;;;;;10.02;4.70;;;;;;;10.82;100.00;100952.03;5001521;28;20041;-83
2022/06/21 05:02:14;;;;;;;8.27;3.97;;;;;;;10.88;100.00;100947.66;4995874;28;20068;-85
2022/06/21 05:04:43;;;;;;;10.18;3.35;;;;;;;10.92;100.00;100952.00;5007435;28;20045;-85
2022/06/21 05:07:21;;;;;;;14.35;3.97;;;;;;;10.94;100.00;100944.13;5007925;28;20047;-85
2022/06/21 05:09:48;;;;;;;13.07;3.42;;;;;;;10.96;100.00;100950.22;5010719;28;20045;-85
2022/06/21 05:12:34;;;;;;;11.68;3.85;;;;;;;11.02;100.00;100958.06;5004157;28;20075;-83
2022/06/21 05:15:07;;;;;;;7.43;3.25;;;;;;;11.12;100.00;100963.22;5010199;28;20045;-83
2022/06/21 05:17:38;;;;;;;10.80;2.75;;;;;;;11.21;99.48;100966.69;5010246;28;20170;-83
2022/06/21 05:20:20;;;;;;;7.63;2.88;;;;;;;11.27;99.39;100970.13;5008432;28;20045;-85
2022/06/21 05:22:52;;;;;;;7.13;3.47;;;;;;;11.32;99.24;100963.13;5005873;28;20128;-86
2022/06/21 05:25:37;;;;;;;8.07;3.78;;;;;;;11.36;98.55;100965.69;5010208;28;20184;-87
2022/06/21 05:28:32;;;;;;;10.75;3.65;;;;;;;11.38;98.64;100974.44;5003414;28;20056;-84
2022/06/21 05:31:26;;;;;;;8.88;3.20;;;;;;;11.39;98.65;100965.69;5004907;28;20592;-85
2022/06/21 05:34:06;;;;;;;11.18;2.97;;;;;;;11.40;98.35;100963.94;5011656;28;20563;-85
2022/06/21 05:36:44;;;;;;;11.98;3.20;;;;;;;11.42;98.55;100959.56;4995409;28;20045;-84
2022/06/21 05:39:22;;;;;;;9.82;3.28;;;;;;;11.45;98.11;100954.28;5010523;28;20056;-83
2022/06/21 05:41:53;;;;;;;11.75;3.08;;;;;;;11.48;98.61;100951.63;4994577;28;20053;-84
2022/06/21 05:44:31;;;;;;;10.98;3.05;;;;;;;11.54;98.52;100964.69;5009796;28;20045;-84
2022/06/21 05:47:15;;;;;;;10.98;2.60;;;;;;;11.59;97.12;100957.66;5005253;28;20602;-85
2022/06/21 05:49:43;;;;;;;7.38;2.63;;;;;;;11.65;96.32;100967.22;5007375;28;20045;-84
2022/06/21 05:52:24;;;;;;;10.48;2.58;;;;;;;11.68;96.65;100959.34;5012119;28;20060;-84
2022/06/21 05:55:06;;;;;;;12.73;2.47;;;;;;;11.73;96.64;100969.78;5006888;28;20598;-84
2022/06/21 05:57:42;;;;;;;7.43;2.55;;;;;;;11.80;96.66;100973.19;5031624;28;20087;-84
2022/06/21 06:00:29;;;;;;;7.80;2.88;;;;;;;11.87;96.49;100974.91;4995796;28;20076;-85
2022/06/21 06:03:06;;;;;;;10.02;2.90;;;;;;;11.92;95.36;100976.59;4994130;28;20048;-86
2022/06/21 06:05:35;;;;;;;9.00;2.78;;;;;;;12.00;94.64;100986.19;5031564;28;20043;-83
2022/06/21 06:08:10;;;;;;;11.82;2.67;;;;;;;12.05;94.61;100982.63;4994578;28;20037;-85
2022/06/21 06:10:40;;;;;;;13.18;3.58;;;;;;;12.12;94.43;100982.56;5010551;28;20065;-85
2022/06/21 06:13:14;;;;;;;12.63;2.90;;;;;;;12.13;94.41;100977.31;4994690;28;20041;-82
2022/06/21 06:15:48;;;;;;;;;;;;;;;12.16;94.86;100989.53;5017528;28;20085;-82
2022/06/21 06:18:21;;;;;;;;;;;;;;;12.24;94.18;100979.81;5017773;28;19948;-83
2022/06/21 06:21:04;;;;;;;8.60;2.88;;;;;;;12.37;93.38;100993.66;5033432;28;20051;-85
2022/06/21 06:23:53;;;;;;;11.10;3.30;;;;;;;12.44;92.52;100989.22;4998782;28;20045;-84
2022/06/21 06:26:27;;;;;;;8.15;2.88;;;;;;;12.54;92.30;101001.34;5029829;28;20051;-83
2022/06/21 06:29:33;;;;;;;4.15;2.28;;;;;;;12.71;91.62;100999.41;4998652;28;20076;-85
2022/06/21 06:32:12;;;;;;;11.88;2.60;;;;;;;13.00;90.27;100992.06;4973086;28;20074;-84
2022/06/21 06:34:46;;;;;;;10.85;2.38;;;;;;;13.28;87.97;100996.91;5031488;28;20067;-85
2022/06/21 06:37:33;;;;;;;8.07;3.20;;;;;;;13.34;85.85;100989.78;5015032;28;20484;-85
2022/06/21 06:40:02;;;;;;;5.85;2.53;;;;;;;13.32;86.24;100995.97;4999830;28;20049;-85
2022/06/21 06:42:35;;;;;;;8.15;2.30;;;;;;;13.47;85.64;100993.16;4992305;28;20622;-84
2022/06/21 06:45:14;;;;;;;6.40;2.40;;;;;;;13.68;83.48;101006.84;5014441;28;20072;-83
2022/06/21 06:47:49;;;;;;;11.57;3.22;;;;;;;13.77;82.61;101006.69;5020280;28;20408;-84
2022/06/21 06:50:24;;;;;;;11.32;3.42;;;;;;;13.92;81.78;101004.69;4996290;28;20049;-86
2022/06/21 06:53:16;;;;;;;15.98;2.63;;;;;;;14.07;79.61;101007.06;5008752;28;20053;-86
2022/06/21 06:55:58;;;;;;;10.15;3.08;;;;;;;14.25;80.10;101013.78;5011412;28;20057;-85
2022/06/21 06:58:31;;;;;;;6.97;2.72;;;;;;;14.57;77.35;101012.28;5031759;28;20092;-82
2022/06/21 07:01:04;;;;;;;9.75;2.42;;;;;;;14.61;76.49;101015.72;5021094;28;20057;-83
2022/06/21 07:03:38;;;;;;;7.55;1.92;;;;;;;14.66;76.88;101012.13;5003747;28;20052;-86
2022/06/21 07:06:22;;;;;;;19.58;3.25;;;;;;;14.96;73.77;101016.78;5024879;28;20103;-84
2022/06/21 07:08:57;;;;;;;8.30;2.10;;;;;;;15.04;73.09;101010.47;5034714;28;20079;-83
2022/06/21 07:12:07;;;;;;;9.15;2.33;;;;;;;14.94;74.01;101013.31;5024775;28;20037;-85
2022/06/21 07:14:36;;;;;;;8.38;2.58;;;;;;;15.11;73.30;101015.56;5006039;28;20064;-83
2022/06/21 07:17:17;;;;;;;8.48;1.60;;;;;;;15.33;72.25;101011.56;5003253;28;20049;-83
2022/06/21 07:19:47;;;;;;;6.75;1.77;;;;;;;15.44;70.82;101018.38;5018231;28;20072;-83
2022/06/21 07:22:21;;;;;;;8.85;2.42;;;;;;;15.41;70.75;101010.50;5005055;28;20497;-83
2022/06/21 07:25:37;;;;;;;4.78;1.50;;;;;;;15.29;68.98;101020.47;4999022;28;20042;-83
2022/06/21 07:28:30;;;;;;;7.13;2.03;;;;;;;15.51;67.89;101017.31;4994926;28;20047;-84
2022/06/21 07:31:01;;;;;;;6.85;1.30;;;;;;;16.07;66.60;101015.97;5012174;28;20041;-83
2022/06/21 07:33:45;;;;;;;5.78;1.45;;;;;;;16.48;62.78;101017.50;5013926;28;20119;-85
2022/06/21 07:36:19;;;;;;;7.95;1.35;;;;;;;16.34;61.90;101019.66;4996387;28;20041;-83
2022/06/21 07:38:53;;;;;;;6.63;2.28;;;;;;;15.92;64.47;101019.88;5020418;28;20064;-87
2022/06/21 07:41:35;;;;;;;10.75;2.20;;;;;;;16.37;63.58;101012.53;5012889;28;20065;-87
2022/06/21 07:44:16;;;;;;;9.02;2.38;;;;;;;17.21;62.93;101004.84;5030272;28;20040;-87
2022/06/21 07:46:49;;;;;;;7.45;1.95;;;;;;;18.34;58.14;100999.34;5022007;28;20061;-84
2022/06/21 07:49:52;;;;;;;5.43;1.50;;;;;;;18.10;57.09;100998.44;5021863;28;20071;-84
2022/06/21 07:52:33;;;;;;;6.05;2.03;;;;;;;17.47;59.10;101011.09;5014930;28;20038;-83
2022/06/21 07:55:05;;;;;;;9.00;2.40;;;;;;;17.13;59.76;101013.03;5026857;28;20120;-85
2022/06/21 07:57:39;;;;;;;6.17;1.30;;;;;;;17.49;57.96;101006.63;5022736;28;20120;-84
2022/06/21 08:00:20;;;;;;;11.82;2.47;;;;;;;18.11;57.38;101008.13;4999433;28;20098;-84
2022/06/21 08:09:31;;;;;;;8.07;1.25;;;;;;;19.70;50.53;101003.03;5032370;28;20161;-84
2022/06/21 08:12:00;;;;;;;7.53;1.35;;;;;;;19.88;49.95;101012.94;5004811;28;20038;-84
2022/06/21 08:14:31;;;;;;;4.93;1.15;;;;;;;19.98;50.72;101022.22;5016398;28;20045;-85
2022/06/21 08:17:23;;;;;;;10.10;1.77;;;;;;;20.59;48.79;101011.63;5016777;28;20052;-84
2022/06/21 08:20:06;;;;;;;9.30;2.30;;;;;;;20.37;48.09;101012.59;5013731;28;20485;-84
2022/06/21 08:22:44;;;;;;;6.87;1.33;;;;;;;19.47;49.88;101012.81;5006347;28;20064;-84
2022/06/21 08:25:27;;;;;;;4.50;1.08;;;;;;;18.66;52.50;101015.88;5010158;28;20037;-85
2022/06/21 08:28:19;;;;;;;4.82;1.17;;;;;;;18.74;52.23;101012.94;5015947;28;20049;-85
2022/06/21 08:30:54;;;;;;;6.35;1.45;;;;;;;18.96;52.78;101009.50;5015072;28;20063;-84
2022/06/21 08:33:50;;;;;;;4.32;1.20;;;;;;;19.30;51.22;101001.06;5012686;28;20928;-85
2022/06/21 08:36:30;;;;;;;2.85;1.02;;;;;;;19.28;51.17;101007.38;5028199;28;20055;-84
2022/06/21 08:39:05;;;;;;;5.93;1.50;;;;;;;19.36;50.71;101005.28;5011066;28;20052;-84
2022/06/21 08:41:55;;;;;;;6.60;1.52;;;;;;;19.25;49.97;101003.03;5023103;28;20039;-83
2022/06/21 08:48:36;;;;;;;2.55;0.70;;;;;;;20.09;48.35;100999.63;5028881;28;20045;-85
2022/06/21 08:52:10;;;;;;;4.22;1.55;;;;;;;20.53;45.94;100996.81;5007748;28;20033;-85
2022/06/21 08:55:28;;;;;;;3.83;0.90;;;;;;;20.63;46.05;100994.59;4994114;28;20052;-86
2022/06/21 08:58:22;;;;;;;4.07;0.98;;;;;;;21.49;44.47;100998.53;5029672;28;20045;-85
2022/06/21 09:01:32;;;;;;;5.28;1.08;;;;;;;22.29;42.63;100982.97;5011048;28;20090;-83
2022/06/21 09:04:25;;;;;;;12.05;1.63;;;;;;;22.90;42.28;100982.44;5019111;28;20146;-85
2022/06/21 09:07:32;;;;;;;6.97;1.63;;;;;;;23.82;40.91;100978.97;5024802;28;20064;-85
2022/06/21 09:10:23;;;;;;;5.40;1.10;;;;;;;24.67;39.52;100975.66;5013399;28;20060;-85
2022/06/21 09:13:17;;;;;;;4.88;1.00;;;;;;;25.12;37.36;100973.66;5014763;28;20042;-85
2022/06/21 09:16:17;;;;;;;4.43;1.20;;;;;;;25.80;36.42;100963.84;5029359;28;20045;-84
2022/06/21 09:19:24;;;;;;;4.35;1.23;;;;;;;25.95;35.04;100969.94;5011308;28;20492;-83
2022/06/21 09:22:39;;;;;;;7.70;1.83;;;;;;;26.53;33.80;100969.53;5032633;28;20052;-85
2022/06/21 09:25:27;;;;;;;1.40;0.90;;;;;;;27.47;33.59;100972.59;4982883;28;20045;-84
2022/06/21 09:28:24;;;;;;;6.95;1.60;;;;;;;28.33;32.06;100981.28;5013261;28;20056;-84
2022/06/21 09:31:12;;;;;;;7.20;1.25;;;;;;;28.74;30.96;100961.00;5014499;28;20088;-87
2022/06/21 09:33:48;;;;;;;3.85;1.00;;;;;;;29.49;30.42;100962.03;5013187;28;20045;-83
2022/06/21 09:36:55;;;;;;;3.83;1.13;;;;;;;30.21;29.25;100962.25;4993939;28;20050;-85
2022/06/21 09:39:55;;;;;;;4.43;1.50;;;;;;;30.88;28.12;100965.34;5009456;28;20046;-86
2022/06/21 09:43:01;;;;;;;2.53;1.02;;;;;;;31.71;25.12;100967.72;5012324;28;20648;-86
2022/06/21 09:45:49;;;;;;;3.60;1.00;;;;;;;30.27;26.10;100967.13;5026046;28;20038;-86
2022/06/21 09:48:36;;;;;;;4.15;1.02;;;;;;;30.12;26.97;100961.19;5000156;28;20049;-85
2022/06/21 09:51:15;;;;;;;2.70;1.10;;;;;;;29.93;27.66;100956.53;4978601;28;20090;-84
2022/06/21 09:54:20;;;;;;;2.42;0.98;;;;;;;30.42;26.51;100953.25;4994980;28;20052;-87
2022/06/21 09:57:05;;;;;;;3.65;0.88;;;;;;;30.95;26.45;100954.81;4992486;28;20061;-85
2022/06/21 09:59:49;;;;;;;2.92;0.70;;;;;;;31.09;25.69;100953.59;5013229;28;20052;-86
2022/06/21 10:02:38;;;;;;;3.20;1.15;;;;;;;30.76;26.41;100947.56;5013753;28;20053;-85
2022/06/21 10:05:48;;;;;;;3.65;1.10;;;;;;;31.14;25.37;100945.94;4990462;28;20049;-87
2022/06/21 10:08:52;;;;;;;1.85;0.80;;;;;;;30.72;25.23;100941.56;5010649;28;20652;-85
2022/06/21 10:11:54;;;;;;;4.63;1.17;;;;;;;30.73;25.23;100939.69;5025519;28;20052;-84
2022/06/21 10:14:50;;;;;;;4.90;1.45;;;;;;;30.55;26.12;100948.47;4999368;28;20565;-86
2022/06/21 10:17:50;;;;;;;2.75;1.30;;;;;;;31.51;24.52;100935.25;5004262;28;20137;-86
2022/06/21 10:20:50;;;;;;;2.78;1.10;;;;;;;32.53;23.65;100932.00;5025401;28;20120;-86
2022/06/21 10:24:00;;;;;;;2.13;1.08;;;;;;;33.27;22.55;100930.13;4992509;28;20040;-88
2022/06/21 10:26:39;;;;;;;2.13;1.27;;;;;;;33.50;23.01;100921.50;5030798;28;20049;-88
2022/06/21 10:30:18;;;;;;;3.78;1.13;;;;;;;33.72;22.60;100915.56;5027846;28;20060;-84
2022/06/21 10:33:32;;;;;;;2.40;1.15;;;;;;;33.68;22.08;100918.75;4972822;28;20579;-87
2022/06/21 10:36:22;;;;;;;3.90;0.90;;;;;;;34.11;22.17;100911.56;5038575;28;20041;-88
2022/06/21 10:39:18;;;;;;;1.77;1.20;;;;;;;34.56;20.48;100894.13;5023409;28;20049;-85
2022/06/21 10:45:16;;;;;;;3.90;0.80;;;;;;;34.88;20.13;100897.09;5032231;28;20120;-89
2022/06/21 10:47:58;;;;;;;2.30;1.00;;;;;;;34.61;20.86;100890.88;5035880;28;20140;-86
2022/06/21 10:50:57;;;;;;;3.03;0.73;;;;;;;35.07;20.06;100894.06;5038305;28;20049;-85
2022/06/21 10:54:17;;;;;;;2.85;0.93;;;;;;;34.71;19.69;100890.75;5013062;28;20156;-85
2022/06/21 10:57:12;;;;;;;6.15;0.88;;;;;;;34.35;20.02;100888.28;5032691;28;20547;-87
2022/06/21 11:03:36;;;;;;;3.42;1.20;;;;;;;33.56;20.02;100891.00;5000376;28;20132;-86
2022/06/21 11:06:22;;;;;;;2.03;0.90;;;;;;;33.78;20.18;100885.06;5013527;28;20042;-87
2022/06/21 11:09:13;;;;;;;7.28;1.17;;;;;;;35.09;19.08;100897.44;5026423;28;20408;-86
2022/06/21 11:15:46;;;;;;;2.33;0.80;;;;;;;36.33;18.34;100880.06;5012160;28;20056;-86
2022/06/21 11:18:28;;;;;;;2.05;0.70;;;;;;;37.17;18.11;100871.19;5018212;28;20045;-87
2022/06/21 11:21:22;;;;;;;2.85;1.00;;;;;;;36.89;18.16;100871.78;5037907;28;20420;-89
2022/06/21 11:24:19;;;;;;;1.85;0.82;;;;;;;36.29;18.90;100867.84;5041073;28;20049;-89
2022/06/21 11:27:01;;;;;;;2.55;1.08;;;;;;;36.38;18.73;100867.63;5019752;28;20041;-88
2022/06/21 11:30:01;;;;;;;4.40;1.02;;;;;;;37.15;17.64;100856.91;5034505;28;20150;-84
2022/06/21 11:33:20;;;;;;;4.38;1.00;;;;;;;36.66;18.30;100861.69;5018692;28;20148;-89
2022/06/21 11:36:15;;;;;;;2.92;1.15;;;;;;;36.70;18.21;100851.25;4999959;28;20064;-86
2022/06/21 11:39:37;;;;;;;3.63;1.50;;;;;;;36.54;18.07;100853.03;5020786;28;20075;-85
2022/06/21 11:42:25;;;;;;;5.45;1.02;;;;;;;36.46;18.23;100849.53;4997486;28;20135;-88
2022/06/21 11:45:27;;;;;;;1.90;0.63;;;;;;;36.11;18.87;100844.41;5017472;28;20045;-87
2022/06/21 11:48:23;;;;;;;3.95;1.20;;;;;;;36.09;18.54;100846.47;5007893;28;20135;-84
2022/06/21 11:51:31;;;;;;;3.00;0.82;;;;;;;36.09;18.70;100833.69;5022794;28;20041;-82
2022/06/21 11:54:03;;;;;;;2.55;1.00;;;;;;;37.51;17.44;100837.13;4931909;29;20059;-84
2022/06/21 11:57:05;;;;;;;3.85;0.98;;;;;;;38.76;16.56;100829.91;5008568;28;20260;-85
2022/06/21 11:59:57;;;;;;;2.10;0.70;;;;;;;39.61;15.67;100831.84;5029603;28;20733;-86
2022/06/21 12:02:53;;;;;;;3.88;0.65;;;;;;;40.42;15.56;100830.31;5009596;28;20068;-83
2022/06/21 12:05:46;;;;;;;2.70;0.60;;;;;;;40.18;14.72;100833.44;5011845;28;20044;-87
2022/06/21 12:08:37;;;;;;;1.13;0.80;;;;;;;39.02;14.93;100820.22;4996729;28;20100;-85
2022/06/21 12:11:24;;;;;;;2.47;1.00;;;;;;;38.29;15.74;100817.59;4989923;28;20103;-88
2022/06/21 12:14:20;;;;;;;1.80;0.60;;;;;;;39.01;15.46;100811.19;5013484;28;20041;-88
2022/06/21 12:17:20;;;;;;;2.22;0.77;;;;;;;39.80;14.91;100816.59;5008287;28;20054;-87
2022/06/21 12:19:54;;;;;;;4.30;1.13;;;;;;;39.94;14.92;100814.75;4995928;28;20049;-89
2022/06/21 12:22:34;;;;;;;2.22;0.90;;;;;;;40.08;14.47;100818.41;5026829;28;20052;-87
2022/06/21 12:25:00;;;;;;;2.38;0.70;;;;;;;39.95;15.36;100811.81;4993694;28;20216;-88
2022/06/21 12:27:28;;;;;;;3.50;0.80;;;;;;;39.39;15.41;100807.28;5028796;28;20061;-85
2022/06/21 12:30:14;;;;;;;2.78;0.57;;;;;;;39.83;14.31;100800.59;4994112;28;20077;-83
2022/06/21 12:32:41;;;;;;;2.33;1.27;;;;;;;39.36;14.74;100803.06;4996585;28;20056;-83
2022/06/21 12:37:56;;;;;;;2.28;0.50;;;;;;;40.55;13.72;100788.38;4996710;28;20045;-89
2022/06/21 12:40:39;;;;;;;1.27;0.60;;;;;;;40.03;13.26;100786.94;5006515;28;20064;-87
2022/06/21 12:43:44;;;;;;;1.88;0.40;;;;;;;40.46;12.71;100793.22;5004484;28;20045;-88
2022/06/21 12:46:34;;;;;;;1.58;0.50;;;;;;;40.25;13.10;100785.97;5026547;28;20057;-86
2022/06/21 12:49:23;;;;;;;2.30;1.27;;;;;;;40.38;13.25;100780.53;4996422;28;20044;-85
2022/06/21 12:52:15;;;;;;;3.05;0.52;;;;;;;40.31;13.09;100776.94;5011880;28;20057;-85
2022/06/21 12:55:08;;;;;;;;;;;;;;;40.68;12.62;100770.03;5012022;28;20072;-87
2022/06/21 12:57:47;;;;;;;1.52;0.57;;;;;;;41.00;12.92;100772.16;5012595;28;19964;-85
2022/06/21 13:00:54;;;;;;;1.42;0.52;;;;;;;40.97;12.71;100776.19;5009347;28;20053;-84
2022/06/21 13:03:37;;;;;;;1.48;0.40;;;;;;;40.32;13.30;100773.16;4996454;28;20042;-84